sensor_id;sensor_type;location;lat;lon;timestamp;P1;durP1;ratioP1;P2;durP2;ratioP2
9974;SDS011;5028;50.974;4.968;2023-05-10T00:02:11;14.37;;;10.97;;
9974;SDS011;5028;50.974;4.968;2023-05-10T00:04:41;14.00;;;10.10;;
9974;SDS011;5028;50.974;4.968;2023-05-10T00:07:11;12.47;;;10.70;;
9974;SDS011;5028;50.974;4.968;2023-05-10T00:09:39;12.43;;;10.43;;
9974;SDS011;5028;50.974;4.968;2023-05-10T00:12:09;12.43;;;10.77;;
9974;SDS011;5028;50.974;4.968;2023-05-10T00:14:40;13.13;;;10.77;;
9974;SDS011;5028;50.974;4.968;2023-05-10T00:17:08;15.87;;;11.00;;
9974;SDS011;5028;50.974;4.968;2023-05-10T00:19:37;12.27;;;9.97;;
9974;SDS011;5028;50.974;4.968;2023-05-10T00:22:06;15.30;;;10.20;;
9974;SDS011;5028;50.974;4.968;2023-05-10T00:24:36;11.80;;;10.37;;
9974;SDS011;5028;50.974;4.968;2023-05-10T00:27:04;17.47;;;11.00;;
9974;SDS011;5028;50.974;4.968;2023-05-10T00:29:33;14.43;;;10.40;;
9974;SDS011;5028;50.974;4.968;2023-05-10T00:32:03;12.13;;;9.50;;
9974;SDS011;5028;50.974;4.968;2023-05-10T00:34:34;12.90;;;10.10;;
9974;SDS011;5028;50.974;4.968;2023-05-10T00:37:02;15.40;;;11.37;;
9974;SDS011;5028;50.974;4.968;2023-05-10T00:39:31;12.70;;;10.57;;
9974;SDS011;5028;50.974;4.968;2023-05-10T00:42:01;13.97;;;11.07;;
9974;SDS011;5028;50.974;4.968;2023-05-10T00:44:30;14.23;;;10.57;;
9974;SDS011;5028;50.974;4.968;2023-05-10T00:46:59;14.37;;;10.27;;
9974;SDS011;5028;50.974;4.968;2023-05-10T00:49:28;13.67;;;10.83;;
9974;SDS011;5028;50.974;4.968;2023-05-10T00:51:57;14.90;;;10.73;;
9974;SDS011;5028;50.974;4.968;2023-05-10T00:54:27;12.50;;;9.97;;
9974;SDS011;5028;50.974;4.968;2023-05-10T00:56:56;14.73;;;10.90;;
9974;SDS011;5028;50.974;4.968;2023-05-10T00:59:26;16.20;;;9.97;;
9974;SDS011;5028;50.974;4.968;2023-05-10T01:01:56;13.53;;;10.07;;
9974;SDS011;5028;50.974;4.968;2023-05-10T01:04:26;12.27;;;9.73;;
9974;SDS011;5028;50.974;4.968;2023-05-10T01:06:55;12.27;;;9.73;;
9974;SDS011;5028;50.974;4.968;2023-05-10T01:09:24;12.50;;;9.43;;
9974;SDS011;5028;50.974;4.968;2023-05-10T01:11:54;14.13;;;9.03;;
9974;SDS011;5028;50.974;4.968;2023-05-10T01:14:24;13.63;;;8.57;;
9974;SDS011;5028;50.974;4.968;2023-05-10T01:16:55;15.47;;;9.53;;
9974;SDS011;5028;50.974;4.968;2023-05-10T01:19:25;12.03;;;8.57;;
9974;SDS011;5028;50.974;4.968;2023-05-10T01:21:58;12.33;;;8.50;;
9974;SDS011;5028;50.974;4.968;2023-05-10T01:24:39;14.90;;;8.83;;
9974;SDS011;5028;50.974;4.968;2023-05-10T01:33:31;12.77;;;9.17;;
9974;SDS011;5028;50.974;4.968;2023-05-10T01:36:08;14.07;;;9.10;;
9974;SDS011;5028;50.974;4.968;2023-05-10T01:38:46;15.93;;;10.00;;
9974;SDS011;5028;50.974;4.968;2023-05-10T01:41:19;21.57;;;10.70;;
9974;SDS011;5028;50.974;4.968;2023-05-10T01:43:57;17.20;;;10.03;;
9974;SDS011;5028;50.974;4.968;2023-05-10T01:46:32;15.87;;;10.20;;
9974;SDS011;5028;50.974;4.968;2023-05-10T01:49:06;16.60;;;10.77;;
9974;SDS011;5028;50.974;4.968;2023-05-10T01:51:39;15.17;;;10.13;;
9974;SDS011;5028;50.974;4.968;2023-05-10T01:54:13;14.23;;;10.10;;
9974;SDS011;5028;50.974;4.968;2023-05-10T01:56:44;16.63;;;10.33;;
9974;SDS011;5028;50.974;4.968;2023-05-10T01:59:18;17.50;;;10.77;;
9974;SDS011;5028;50.974;4.968;2023-05-10T02:01:47;19.47;;;11.93;;
9974;SDS011;5028;50.974;4.968;2023-05-10T02:04:23;19.00;;;11.13;;
9974;SDS011;5028;50.974;4.968;2023-05-10T02:06:53;14.10;;;10.83;;
9974;SDS011;5028;50.974;4.968;2023-05-10T02:09:22;20.07;;;10.97;;
9974;SDS011;5028;50.974;4.968;2023-05-10T02:11:53;17.33;;;10.83;;
9974;SDS011;5028;50.974;4.968;2023-05-10T02:14:23;18.97;;;11.63;;
9974;SDS011;5028;50.974;4.968;2023-05-10T02:16:54;15.40;;;10.80;;
9974;SDS011;5028;50.974;4.968;2023-05-10T02:19:26;19.13;;;11.30;;
9974;SDS011;5028;50.974;4.968;2023-05-10T02:21:57;17.07;;;10.67;;
9974;SDS011;5028;50.974;4.968;2023-05-10T02:24:27;17.30;;;11.37;;
9974;SDS011;5028;50.974;4.968;2023-05-10T02:26:57;16.37;;;11.07;;
9974;SDS011;5028;50.974;4.968;2023-05-10T02:29:28;21.67;;;11.67;;
9974;SDS011;5028;50.974;4.968;2023-05-10T02:31:58;17.87;;;11.73;;
9974;SDS011;5028;50.974;4.968;2023-05-10T02:34:29;17.47;;;11.47;;
9974;SDS011;5028;50.974;4.968;2023-05-10T02:36:59;19.90;;;11.80;;
9974;SDS011;5028;50.974;4.968;2023-05-10T02:39:32;15.90;;;11.23;;
9974;SDS011;5028;50.974;4.968;2023-05-10T02:42:02;22.83;;;13.50;;
9974;SDS011;5028;50.974;4.968;2023-05-10T02:44:31;20.03;;;12.00;;
9974;SDS011;5028;50.974;4.968;2023-05-10T02:47:02;18.50;;;12.33;;
9974;SDS011;5028;50.974;4.968;2023-05-10T02:49:32;19.37;;;12.80;;
9974;SDS011;5028;50.974;4.968;2023-05-10T02:52:01;17.27;;;12.37;;
9974;SDS011;5028;50.974;4.968;2023-05-10T02:54:33;17.43;;;12.07;;
9974;SDS011;5028;50.974;4.968;2023-05-10T02:57:09;20.10;;;13.40;;
9974;SDS011;5028;50.974;4.968;2023-05-10T02:59:45;19.83;;;12.80;;
9974;SDS011;5028;50.974;4.968;2023-05-10T03:02:14;18.27;;;12.93;;
9974;SDS011;5028;50.974;4.968;2023-05-10T03:04:44;17.43;;;12.90;;
9974;SDS011;5028;50.974;4.968;2023-05-10T03:07:13;21.70;;;13.47;;
9974;SDS011;5028;50.974;4.968;2023-05-10T03:09:43;19.87;;;13.20;;
9974;SDS011;5028;50.974;4.968;2023-05-10T03:12:14;20.63;;;14.30;;
9974;SDS011;5028;50.974;4.968;2023-05-10T03:14:49;19.13;;;13.70;;
9974;SDS011;5028;50.974;4.968;2023-05-10T03:17:31;16.20;;;12.90;;
9974;SDS011;5028;50.974;4.968;2023-05-10T03:20:11;18.30;;;12.80;;
9974;SDS011;5028;50.974;4.968;2023-05-10T03:22:45;21.17;;;13.57;;
9974;SDS011;5028;50.974;4.968;2023-05-10T03:25:18;21.63;;;13.87;;
9974;SDS011;5028;50.974;4.968;2023-05-10T03:27:48;18.30;;;13.80;;
9974;SDS011;5028;50.974;4.968;2023-05-10T03:30:18;22.17;;;14.60;;
9974;SDS011;5028;50.974;4.968;2023-05-10T03:32:48;18.67;;;13.30;;
9974;SDS011;5028;50.974;4.968;2023-05-10T03:35:19;17.80;;;14.13;;
9974;SDS011;5028;50.974;4.968;2023-05-10T03:37:47;16.50;;;13.43;;
9974;SDS011;5028;50.974;4.968;2023-05-10T03:40:16;20.50;;;13.70;;
9974;SDS011;5028;50.974;4.968;2023-05-10T03:42:45;19.60;;;14.03;;
9974;SDS011;5028;50.974;4.968;2023-05-10T03:45:14;19.63;;;14.30;;
9974;SDS011;5028;50.974;4.968;2023-05-10T03:47:43;18.50;;;13.43;;
9974;SDS011;5028;50.974;4.968;2023-05-10T03:50:12;19.23;;;13.93;;
9974;SDS011;5028;50.974;4.968;2023-05-10T03:52:43;18.63;;;13.60;;
9974;SDS011;5028;50.974;4.968;2023-05-10T03:55:11;18.20;;;13.53;;
9974;SDS011;5028;50.974;4.968;2023-05-10T03:57:40;20.50;;;14.20;;
9974;SDS011;5028;50.974;4.968;2023-05-10T04:00:09;18.47;;;13.97;;
9974;SDS011;5028;50.974;4.968;2023-05-10T04:02:38;18.53;;;14.50;;
9974;SDS011;5028;50.974;4.968;2023-05-10T04:05:08;20.00;;;14.97;;
9974;SDS011;5028;50.974;4.968;2023-05-10T04:07:37;20.33;;;15.37;;
9974;SDS011;5028;50.974;4.968;2023-05-10T04:10:08;19.80;;;14.60;;
9974;SDS011;5028;50.974;4.968;2023-05-10T04:12:38;20.07;;;15.10;;
9974;SDS011;5028;50.974;4.968;2023-05-10T04:15:07;26.33;;;16.53;;
9974;SDS011;5028;50.974;4.968;2023-05-10T04:17:36;23.67;;;17.03;;
9974;SDS011;5028;50.974;4.968;2023-05-10T04:20:06;22.17;;;15.73;;
9974;SDS011;5028;50.974;4.968;2023-05-10T04:22:35;24.17;;;16.70;;
9974;SDS011;5028;50.974;4.968;2023-05-10T04:25:05;26.50;;;17.00;;
9974;SDS011;5028;50.974;4.968;2023-05-10T04:27:36;22.13;;;15.80;;
9974;SDS011;5028;50.974;4.968;2023-05-10T04:30:05;23.57;;;16.93;;
9974;SDS011;5028;50.974;4.968;2023-05-10T04:32:36;24.03;;;16.37;;
9974;SDS011;5028;50.974;4.968;2023-05-10T04:35:05;22.67;;;16.60;;
9974;SDS011;5028;50.974;4.968;2023-05-10T04:37:36;23.40;;;16.00;;
9974;SDS011;5028;50.974;4.968;2023-05-10T04:40:05;26.07;;;16.97;;
9974;SDS011;5028;50.974;4.968;2023-05-10T04:42:36;22.47;;;16.53;;
9974;SDS011;5028;50.974;4.968;2023-05-10T04:45:08;25.00;;;18.23;;
9974;SDS011;5028;50.974;4.968;2023-05-10T04:47:37;26.60;;;17.53;;
9974;SDS011;5028;50.974;4.968;2023-05-10T04:50:06;24.17;;;18.20;;
9974;SDS011;5028;50.974;4.968;2023-05-10T04:52:36;26.40;;;17.33;;
9974;SDS011;5028;50.974;4.968;2023-05-10T04:55:05;23.67;;;17.60;;
9974;SDS011;5028;50.974;4.968;2023-05-10T04:57:38;24.57;;;18.20;;
9974;SDS011;5028;50.974;4.968;2023-05-10T05:00:07;25.47;;;18.93;;
9974;SDS011;5028;50.974;4.968;2023-05-10T05:02:36;26.93;;;17.90;;
9974;SDS011;5028;50.974;4.968;2023-05-10T05:05:05;26.67;;;19.80;;
9974;SDS011;5028;50.974;4.968;2023-05-10T05:07:34;32.00;;;20.70;;
9974;SDS011;5028;50.974;4.968;2023-05-10T05:10:05;29.93;;;20.70;;
9974;SDS011;5028;50.974;4.968;2023-05-10T05:12:35;33.53;;;20.97;;
9974;SDS011;5028;50.974;4.968;2023-05-10T05:15:06;36.53;;;22.10;;
9974;SDS011;5028;50.974;4.968;2023-05-10T05:17:36;33.07;;;21.63;;
9974;SDS011;5028;50.974;4.968;2023-05-10T05:20:05;30.03;;;21.63;;
9974;SDS011;5028;50.974;4.968;2023-05-10T05:22:35;31.13;;;21.47;;
9974;SDS011;5028;50.974;4.968;2023-05-10T05:25:04;34.37;;;23.20;;
9974;SDS011;5028;50.974;4.968;2023-05-10T05:27:33;31.47;;;22.07;;
9974;SDS011;5028;50.974;4.968;2023-05-10T05:30:06;38.03;;;24.53;;
9974;SDS011;5028;50.974;4.968;2023-05-10T05:32:37;42.83;;;26.03;;
9974;SDS011;5028;50.974;4.968;2023-05-10T05:35:06;40.63;;;26.70;;
9974;SDS011;5028;50.974;4.968;2023-05-10T05:37:35;43.93;;;27.03;;
9974;SDS011;5028;50.974;4.968;2023-05-10T05:40:05;41.67;;;26.97;;
9974;SDS011;5028;50.974;4.968;2023-05-10T05:42:35;40.03;;;27.20;;
9974;SDS011;5028;50.974;4.968;2023-05-10T05:45:07;38.90;;;25.57;;
9974;SDS011;5028;50.974;4.968;2023-05-10T05:47:40;41.27;;;26.50;;
9974;SDS011;5028;50.974;4.968;2023-05-10T05:50:09;35.50;;;24.87;;
9974;SDS011;5028;50.974;4.968;2023-05-10T05:52:38;41.00;;;27.03;;
9974;SDS011;5028;50.974;4.968;2023-05-10T05:55:07;36.37;;;25.23;;
9974;SDS011;5028;50.974;4.968;2023-05-10T05:57:36;40.20;;;26.30;;
9974;SDS011;5028;50.974;4.968;2023-05-10T06:00:07;38.07;;;24.83;;
9974;SDS011;5028;50.974;4.968;2023-05-10T06:02:36;36.80;;;24.43;;
9974;SDS011;5028;50.974;4.968;2023-05-10T06:05:06;34.50;;;23.87;;
9974;SDS011;5028;50.974;4.968;2023-05-10T06:07:36;35.20;;;24.50;;
9974;SDS011;5028;50.974;4.968;2023-05-10T06:10:06;31.87;;;22.90;;
9974;SDS011;5028;50.974;4.968;2023-05-10T06:12:36;37.33;;;24.70;;
9974;SDS011;5028;50.974;4.968;2023-05-10T06:15:05;40.13;;;25.23;;
9974;SDS011;5028;50.974;4.968;2023-05-10T06:17:38;37.27;;;24.40;;
9974;SDS011;5028;50.974;4.968;2023-05-10T06:20:11;37.03;;;25.07;;
9974;SDS011;5028;50.974;4.968;2023-05-10T06:22:41;38.07;;;25.27;;
9974;SDS011;5028;50.974;4.968;2023-05-10T06:25:10;43.27;;;27.07;;
9974;SDS011;5028;50.974;4.968;2023-05-10T06:27:40;40.50;;;27.87;;
9974;SDS011;5028;50.974;4.968;2023-05-10T06:30:15;43.07;;;27.23;;
9974;SDS011;5028;50.974;4.968;2023-05-10T06:32:44;42.67;;;27.77;;
9974;SDS011;5028;50.974;4.968;2023-05-10T06:35:13;37.93;;;26.47;;
9974;SDS011;5028;50.974;4.968;2023-05-10T06:37:42;36.53;;;25.33;;
9974;SDS011;5028;50.974;4.968;2023-05-10T06:40:11;33.30;;;23.97;;
9974;SDS011;5028;50.974;4.968;2023-05-10T06:42:41;33.47;;;23.80;;
9974;SDS011;5028;50.974;4.968;2023-05-10T06:45:11;33.93;;;22.83;;
9974;SDS011;5028;50.974;4.968;2023-05-10T06:47:43;28.00;;;21.73;;
9974;SDS011;5028;50.974;4.968;2023-05-10T06:50:12;29.00;;;21.93;;
9974;SDS011;5028;50.974;4.968;2023-05-10T06:52:41;26.60;;;21.20;;
9974;SDS011;5028;50.974;4.968;2023-05-10T06:55:10;25.67;;;19.93;;
9974;SDS011;5028;50.974;4.968;2023-05-10T06:57:39;26.50;;;21.30;;
9974;SDS011;5028;50.974;4.968;2023-05-10T07:00:08;28.10;;;21.47;;
9974;SDS011;5028;50.974;4.968;2023-05-10T07:02:37;25.90;;;20.07;;
9974;SDS011;5028;50.974;4.968;2023-05-10T07:05:08;24.87;;;19.87;;
9974;SDS011;5028;50.974;4.968;2023-05-10T07:07:38;26.27;;;20.07;;
9974;SDS011;5028;50.974;4.968;2023-05-10T07:10:08;23.87;;;19.23;;
9974;SDS011;5028;50.974;4.968;2023-05-10T07:12:37;22.93;;;18.90;;
9974;SDS011;5028;50.974;4.968;2023-05-10T07:15:06;22.20;;;18.90;;
9974;SDS011;5028;50.974;4.968;2023-05-10T07:17:36;23.50;;;18.83;;
9974;SDS011;5028;50.974;4.968;2023-05-10T07:20:13;22.57;;;18.57;;
9974;SDS011;5028;50.974;4.968;2023-05-10T07:22:44;22.40;;;18.73;;
9974;SDS011;5028;50.974;4.968;2023-05-10T07:25:15;21.70;;;18.00;;
9974;SDS011;5028;50.974;4.968;2023-05-10T07:27:44;19.80;;;17.70;;
9974;SDS011;5028;50.974;4.968;2023-05-10T07:30:16;19.60;;;17.20;;
9974;SDS011;5028;50.974;4.968;2023-05-10T07:32:45;20.73;;;18.03;;
9974;SDS011;5028;50.974;4.968;2023-05-10T07:35:15;19.63;;;17.60;;
9974;SDS011;5028;50.974;4.968;2023-05-10T07:37:44;22.73;;;17.53;;
9974;SDS011;5028;50.974;4.968;2023-05-10T07:40:13;19.60;;;17.50;;
9974;SDS011;5028;50.974;4.968;2023-05-10T07:42:42;19.97;;;17.83;;
9974;SDS011;5028;50.974;4.968;2023-05-10T07:45:11;20.33;;;16.77;;
9974;SDS011;5028;50.974;4.968;2023-05-10T07:47:41;19.43;;;17.33;;
9974;SDS011;5028;50.974;4.968;2023-05-10T07:50:10;19.50;;;16.97;;
9974;SDS011;5028;50.974;4.968;2023-05-10T07:52:40;18.23;;;16.33;;
9974;SDS011;5028;50.974;4.968;2023-05-10T07:55:09;18.07;;;16.17;;
9974;SDS011;5028;50.974;4.968;2023-05-10T07:57:38;18.87;;;16.97;;
9974;SDS011;5028;50.974;4.968;2023-05-10T08:00:07;17.20;;;15.40;;
9974;SDS011;5028;50.974;4.968;2023-05-10T08:02:36;18.17;;;16.33;;
9974;SDS011;5028;50.974;4.968;2023-05-10T08:05:05;17.37;;;15.57;;
9974;SDS011;5028;50.974;4.968;2023-05-10T08:07:35;15.83;;;14.23;;
9974;SDS011;5028;50.974;4.968;2023-05-10T08:10:07;16.93;;;15.20;;
9974;SDS011;5028;50.974;4.968;2023-05-10T08:12:38;16.50;;;14.83;;
9974;SDS011;5028;50.974;4.968;2023-05-10T08:15:08;17.13;;;15.40;;
9974;SDS011;5028;50.974;4.968;2023-05-10T08:17:38;16.93;;;15.23;;
9974;SDS011;5028;50.974;4.968;2023-05-10T08:20:07;16.83;;;14.83;;
9974;SDS011;5028;50.974;4.968;2023-05-10T08:22:37;15.27;;;13.67;;
9974;SDS011;5028;50.974;4.968;2023-05-10T08:25:10;7.33;;;6.63;;
9974;SDS011;5028;50.974;4.968;2023-05-10T08:27:39;7.97;;;6.50;;
9974;SDS011;5028;50.974;4.968;2023-05-10T08:30:08;8.37;;;6.50;;
9974;SDS011;5028;50.974;4.968;2023-05-10T08:32:39;7.33;;;6.57;;
9974;SDS011;5028;50.974;4.968;2023-05-10T08:35:09;8.13;;;7.30;;
9974;SDS011;5028;50.974;4.968;2023-05-10T08:37:38;7.60;;;6.77;;
9974;SDS011;5028;50.974;4.968;2023-05-10T08:40:09;9.73;;;7.80;;
9974;SDS011;5028;50.974;4.968;2023-05-10T08:42:40;10.50;;;7.63;;
9974;SDS011;5028;50.974;4.968;2023-05-10T08:45:15;10.50;;;7.47;;
9974;SDS011;5028;50.974;4.968;2023-05-10T08:47:46;9.93;;;7.17;;
9974;SDS011;5028;50.974;4.968;2023-05-10T08:50:15;9.40;;;7.10;;
9974;SDS011;5028;50.974;4.968;2023-05-10T08:52:48;8.60;;;7.30;;
9974;SDS011;5028;50.974;4.968;2023-05-10T08:55:23;8.80;;;7.90;;
9974;SDS011;5028;50.974;4.968;2023-05-10T08:57:52;8.40;;;7.57;;
9974;SDS011;5028;50.974;4.968;2023-05-10T09:00:21;11.73;;;8.63;;
9974;SDS011;5028;50.974;4.968;2023-05-10T09:02:51;12.47;;;8.87;;
9974;SDS011;5028;50.974;4.968;2023-05-10T09:05:21;10.67;;;8.27;;
9974;SDS011;5028;50.974;4.968;2023-05-10T09:07:50;14.27;;;8.87;;
9974;SDS011;5028;50.974;4.968;2023-05-10T09:10:19;11.13;;;8.80;;
9974;SDS011;5028;50.974;4.968;2023-05-10T09:12:50;10.17;;;9.10;;
9974;SDS011;5028;50.974;4.968;2023-05-10T09:15:20;14.30;;;9.57;;
9974;SDS011;5028;50.974;4.968;2023-05-10T09:17:49;12.67;;;9.37;;
9974;SDS011;5028;50.974;4.968;2023-05-10T09:20:19;12.07;;;9.47;;
9974;SDS011;5028;50.974;4.968;2023-05-10T09:22:49;12.07;;;9.23;;
9974;SDS011;5028;50.974;4.968;2023-05-10T09:25:18;13.73;;;9.63;;
9974;SDS011;5028;50.974;4.968;2023-05-10T09:27:50;10.00;;;9.00;;
9974;SDS011;5028;50.974;4.968;2023-05-10T09:30:23;12.10;;;9.80;;
9974;SDS011;5028;50.974;4.968;2023-05-10T09:32:55;11.23;;;9.40;;
9974;SDS011;5028;50.974;4.968;2023-05-10T09:35:25;12.03;;;9.73;;
9974;SDS011;5028;50.974;4.968;2023-05-10T09:37:56;11.30;;;9.13;;
9974;SDS011;5028;50.974;4.968;2023-05-10T09:40:27;10.33;;;8.63;;
9974;SDS011;5028;50.974;4.968;2023-05-10T09:43:00;9.67;;;8.63;;
9974;SDS011;5028;50.974;4.968;2023-05-10T09:45:31;10.90;;;8.20;;
9974;SDS011;5028;50.974;4.968;2023-05-10T09:48:04;11.33;;;8.47;;
9974;SDS011;5028;50.974;4.968;2023-05-10T09:50:35;9.43;;;8.23;;
9974;SDS011;5028;50.974;4.968;2023-05-10T09:53:04;9.07;;;8.17;;
9974;SDS011;5028;50.974;4.968;2023-05-10T09:55:40;8.70;;;7.73;;
9974;SDS011;5028;50.974;4.968;2023-05-10T09:58:13;11.20;;;8.33;;
9974;SDS011;5028;50.974;4.968;2023-05-10T10:00:44;8.30;;;7.50;;
9974;SDS011;5028;50.974;4.968;2023-05-10T10:03:34;9.70;;;7.80;;
9974;SDS011;5028;50.974;4.968;2023-05-10T10:06:10;8.00;;;7.30;;
9974;SDS011;5028;50.974;4.968;2023-05-10T10:08:55;9.77;;;7.83;;
9974;SDS011;5028;50.974;4.968;2023-05-10T10:11:24;8.77;;;7.80;;
9974;SDS011;5028;50.974;4.968;2023-05-10T10:13:54;9.40;;;7.70;;
9974;SDS011;5028;50.974;4.968;2023-05-10T10:16:24;9.33;;;7.90;;
9974;SDS011;5028;50.974;4.968;2023-05-10T10:18:53;8.50;;;7.63;;
9974;SDS011;5028;50.974;4.968;2023-05-10T10:21:22;9.23;;;7.70;;
9974;SDS011;5028;50.974;4.968;2023-05-10T10:23:53;8.90;;;8.00;;
9974;SDS011;5028;50.974;4.968;2023-05-10T10:26:22;8.73;;;7.83;;
9974;SDS011;5028;50.974;4.968;2023-05-10T10:28:56;10.33;;;8.30;;
9974;SDS011;5028;50.974;4.968;2023-05-10T10:31:39;8.70;;;7.50;;
9974;SDS011;5028;50.974;4.968;2023-05-10T10:34:17;8.43;;;7.63;;
9974;SDS011;5028;50.974;4.968;2023-05-10T10:36:53;8.50;;;7.70;;
9974;SDS011;5028;50.974;4.968;2023-05-10T10:39:23;8.17;;;7.30;;
9974;SDS011;5028;50.974;4.968;2023-05-10T10:41:54;8.43;;;7.53;;
9974;SDS011;5028;50.974;4.968;2023-05-10T10:44:37;7.13;;;6.27;;
9974;SDS011;5028;50.974;4.968;2023-05-10T10:47:21;7.33;;;6.33;;
9974;SDS011;5028;50.974;4.968;2023-05-10T10:50:03;7.27;;;5.80;;
9974;SDS011;5028;50.974;4.968;2023-05-10T10:52:33;6.23;;;5.00;;
9974;SDS011;5028;50.974;4.968;2023-05-10T10:55:04;5.73;;;5.20;;
9974;SDS011;5028;50.974;4.968;2023-05-10T10:57:48;5.47;;;4.40;;
9974;SDS011;5028;50.974;4.968;2023-05-10T11:00:23;5.07;;;4.60;;
9974;SDS011;5028;50.974;4.968;2023-05-10T11:02:53;5.50;;;5.00;;
9974;SDS011;5028;50.974;4.968;2023-05-10T11:05:34;5.47;;;4.97;;
9974;SDS011;5028;50.974;4.968;2023-05-10T11:08:07;5.63;;;5.10;;
9974;SDS011;5028;50.974;4.968;2023-05-10T11:11:03;5.87;;;5.03;;
9974;SDS011;5028;50.974;4.968;2023-05-10T11:13:38;4.97;;;4.43;;
9974;SDS011;5028;50.974;4.968;2023-05-10T11:16:11;4.80;;;4.40;;
9974;SDS011;5028;50.974;4.968;2023-05-10T11:18:51;4.10;;;3.80;;
9974;SDS011;5028;50.974;4.968;2023-05-10T11:21:29;4.23;;;3.90;;
9974;SDS011;5028;50.974;4.968;2023-05-10T11:24:00;4.20;;;3.60;;
9974;SDS011;5028;50.974;4.968;2023-05-10T11:26:34;4.07;;;3.67;;
9974;SDS011;5028;50.974;4.968;2023-05-10T11:29:03;3.57;;;3.20;;
9974;SDS011;5028;50.974;4.968;2023-05-10T11:31:34;3.40;;;3.10;;
9974;SDS011;5028;50.974;4.968;2023-05-10T11:34:10;5.20;;;3.17;;
9974;SDS011;5028;50.974;4.968;2023-05-10T11:36:40;3.70;;;3.40;;
9974;SDS011;5028;50.974;4.968;2023-05-10T11:39:09;3.97;;;3.60;;
9974;SDS011;5028;50.974;4.968;2023-05-10T11:41:39;3.70;;;3.40;;
9974;SDS011;5028;50.974;4.968;2023-05-10T11:44:08;3.90;;;3.50;;
9974;SDS011;5028;50.974;4.968;2023-05-10T11:46:39;3.90;;;3.50;;
9974;SDS011;5028;50.974;4.968;2023-05-10T11:49:07;3.87;;;3.57;;
9974;SDS011;5028;50.974;4.968;2023-05-10T11:51:36;4.30;;;3.80;;
9974;SDS011;5028;50.974;4.968;2023-05-10T11:54:06;5.23;;;3.13;;
9974;SDS011;5028;50.974;4.968;2023-05-10T11:56:36;3.70;;;3.40;;
9974;SDS011;5028;50.974;4.968;2023-05-10T11:59:05;3.77;;;3.30;;
9974;SDS011;5028;50.974;4.968;2023-05-10T12:01:36;3.37;;;3.03;;
9974;SDS011;5028;50.974;4.968;2023-05-10T12:04:07;2.77;;;2.57;;
9974;SDS011;5028;50.974;4.968;2023-05-10T12:06:37;2.40;;;2.20;;
9974;SDS011;5028;50.974;4.968;2023-05-10T12:09:09;2.37;;;2.17;;
9974;SDS011;5028;50.974;4.968;2023-05-10T12:11:38;2.70;;;2.47;;
9974;SDS011;5028;50.974;4.968;2023-05-10T12:14:09;4.07;;;2.73;;
9974;SDS011;5028;50.974;4.968;2023-05-10T12:16:40;2.00;;;1.90;;
9974;SDS011;5028;50.974;4.968;2023-05-10T12:19:13;2.00;;;1.80;;
9974;SDS011;5028;50.974;4.968;2023-05-10T12:21:47;2.10;;;1.90;;
9974;SDS011;5028;50.974;4.968;2023-05-10T12:24:16;1.93;;;1.83;;
9974;SDS011;5028;50.974;4.968;2023-05-10T12:26:48;3.03;;;1.87;;
9974;SDS011;5028;50.974;4.968;2023-05-10T12:29:18;1.60;;;1.50;;
9974;SDS011;5028;50.974;4.968;2023-05-10T12:31:53;1.50;;;1.40;;
9974;SDS011;5028;50.974;4.968;2023-05-10T12:34:24;1.40;;;1.30;;
9974;SDS011;5028;50.974;4.968;2023-05-10T12:36:53;1.70;;;1.30;;
9974;SDS011;5028;50.974;4.968;2023-05-10T12:39:23;1.73;;;1.40;;
9974;SDS011;5028;50.974;4.968;2023-05-10T12:41:52;1.40;;;1.30;;
9974;SDS011;5028;50.974;4.968;2023-05-10T12:44:21;1.77;;;1.50;;
9974;SDS011;5028;50.974;4.968;2023-05-10T12:46:50;1.37;;;1.27;;
9974;SDS011;5028;50.974;4.968;2023-05-10T12:49:20;1.33;;;1.23;;
9974;SDS011;5028;50.974;4.968;2023-05-10T12:51:50;1.77;;;1.27;;
9974;SDS011;5028;50.974;4.968;2023-05-10T12:54:18;1.40;;;1.30;;
9974;SDS011;5028;50.974;4.968;2023-05-10T12:56:47;1.57;;;1.40;;
9974;SDS011;5028;50.974;4.968;2023-05-10T12:59:17;1.53;;;1.40;;
9974;SDS011;5028;50.974;4.968;2023-05-10T13:01:46;2.00;;;1.30;;
9974;SDS011;5028;50.974;4.968;2023-05-10T13:04:14;1.17;;;1.10;;
9974;SDS011;5028;50.974;4.968;2023-05-10T13:06:45;1.50;;;1.40;;
9974;SDS011;5028;50.974;4.968;2023-05-10T13:09:13;1.60;;;1.50;;
9974;SDS011;5028;50.974;4.968;2023-05-10T13:11:43;3.53;;;1.80;;
9974;SDS011;5028;50.974;4.968;2023-05-10T13:14:12;2.00;;;1.80;;
9974;SDS011;5028;50.974;4.968;2023-05-10T13:16:42;2.03;;;1.73;;
9974;SDS011;5028;50.974;4.968;2023-05-10T13:19:11;2.20;;;2.00;;
9974;SDS011;5028;50.974;4.968;2023-05-10T13:21:40;2.97;;;1.90;;
9974;SDS011;5028;50.974;4.968;2023-05-10T13:24:11;2.13;;;1.70;;
9974;SDS011;5028;50.974;4.968;2023-05-10T13:26:41;1.93;;;1.77;;
9974;SDS011;5028;50.974;4.968;2023-05-10T13:29:11;1.80;;;1.50;;
9974;SDS011;5028;50.974;4.968;2023-05-10T13:31:39;2.00;;;1.80;;
9974;SDS011;5028;50.974;4.968;2023-05-10T13:34:08;2.40;;;2.20;;
9974;SDS011;5028;50.974;4.968;2023-05-10T13:36:36;2.53;;;2.33;;
9974;SDS011;5028;50.974;4.968;2023-05-10T13:39:05;2.63;;;2.43;;
9974;SDS011;5028;50.974;4.968;2023-05-10T13:41:37;2.47;;;2.23;;
9974;SDS011;5028;50.974;4.968;2023-05-10T13:44:06;2.30;;;2.00;;
9974;SDS011;5028;50.974;4.968;2023-05-10T13:46:35;2.10;;;1.90;;
9974;SDS011;5028;50.974;4.968;2023-05-10T13:49:05;2.10;;;2.00;;
9974;SDS011;5028;50.974;4.968;2023-05-10T13:51:33;1.90;;;1.70;;
9974;SDS011;5028;50.974;4.968;2023-05-10T13:54:02;2.10;;;1.97;;
9974;SDS011;5028;50.974;4.968;2023-05-10T13:56:31;2.00;;;1.80;;
9974;SDS011;5028;50.974;4.968;2023-05-10T13:59:02;2.00;;;1.80;;
9974;SDS011;5028;50.974;4.968;2023-05-10T14:01:30;3.43;;;2.00;;
9974;SDS011;5028;50.974;4.968;2023-05-10T14:04:00;1.83;;;1.73;;
9974;SDS011;5028;50.974;4.968;2023-05-10T14:06:30;1.93;;;1.80;;
9974;SDS011;5028;50.974;4.968;2023-05-10T14:08:59;2.27;;;1.50;;
9974;SDS011;5028;50.974;4.968;2023-05-10T14:11:28;1.60;;;1.50;;
9974;SDS011;5028;50.974;4.968;2023-05-10T14:13:58;1.70;;;1.60;;
9974;SDS011;5028;50.974;4.968;2023-05-10T14:16:32;2.60;;;1.80;;
9974;SDS011;5028;50.974;4.968;2023-05-10T14:19:02;2.30;;;2.10;;
9974;SDS011;5028;50.974;4.968;2023-05-10T14:21:30;2.00;;;1.90;;
9974;SDS011;5028;50.974;4.968;2023-05-10T14:23:59;1.80;;;1.70;;
9974;SDS011;5028;50.974;4.968;2023-05-10T14:26:28;3.07;;;1.77;;
9974;SDS011;5028;50.974;4.968;2023-05-10T14:28:57;1.80;;;1.70;;
9974;SDS011;5028;50.974;4.968;2023-05-10T14:31:26;2.13;;;1.63;;
9974;SDS011;5028;50.974;4.968;2023-05-10T14:33:58;1.90;;;1.70;;
9974;SDS011;5028;50.974;4.968;2023-05-10T14:36:26;2.10;;;1.90;;
9974;SDS011;5028;50.974;4.968;2023-05-10T14:38:55;1.70;;;1.60;;
9974;SDS011;5028;50.974;4.968;2023-05-10T14:41:24;1.70;;;1.40;;
9974;SDS011;5028;50.974;4.968;2023-05-10T14:43:54;2.00;;;1.83;;
9974;SDS011;5028;50.974;4.968;2023-05-10T14:46:23;2.57;;;1.70;;
9974;SDS011;5028;50.974;4.968;2023-05-10T14:48:52;3.40;;;2.37;;
9974;SDS011;5028;50.974;4.968;2023-05-10T14:51:22;3.17;;;2.00;;
9974;SDS011;5028;50.974;4.968;2023-05-10T14:53:51;2.40;;;2.20;;
9974;SDS011;5028;50.974;4.968;2023-05-10T14:56:20;2.67;;;2.47;;
9974;SDS011;5028;50.974;4.968;2023-05-10T14:58:49;2.60;;;2.40;;
9974;SDS011;5028;50.974;4.968;2023-05-10T15:01:18;2.50;;;2.30;;
9974;SDS011;5028;50.974;4.968;2023-05-10T15:03:47;2.40;;;2.20;;
9974;SDS011;5028;50.974;4.968;2023-05-10T15:06:17;2.33;;;2.13;;
9974;SDS011;5028;50.974;4.968;2023-05-10T15:08:58;2.20;;;2.00;;
9974;SDS011;5028;50.974;4.968;2023-05-10T15:11:26;2.07;;;1.97;;
9974;SDS011;5028;50.974;4.968;2023-05-10T15:13:55;3.47;;;2.37;;
9974;SDS011;5028;50.974;4.968;2023-05-10T15:16:24;3.03;;;2.70;;
9974;SDS011;5028;50.974;4.968;2023-05-10T15:18:53;4.43;;;2.97;;
9974;SDS011;5028;50.974;4.968;2023-05-10T15:21:22;3.00;;;2.80;;
9974;SDS011;5028;50.974;4.968;2023-05-10T15:23:52;3.50;;;3.10;;
9974;SDS011;5028;50.974;4.968;2023-05-10T15:26:21;2.70;;;2.50;;
9974;SDS011;5028;50.974;4.968;2023-05-10T15:28:50;3.00;;;2.70;;